Alyeska Resort
Max's Hourly Weather Roundup
ALYESKA_MAX 1/19/2018
Click Here for Graph

        DATE  TIME   Air  Wind  Wind  Wind  BATT   Rel
                    Temp   Spd   Dir  Gust  Volt  Hum%
                      F   MPH   AVG   MPH   AVG   AVG

   1/19/2018 16:00    22     3   176     4 13.10    94
   1/19/2018 15:00    23     1   275     2 13.37    91
   1/19/2018 14:00    24     3   206     5 13.93    88
   1/19/2018 13:00    25     3   183     4 13.87    82
   1/19/2018 12:00    24     1   277     4 13.83    86
   1/19/2018 11:00    22     2   162     5 12.94    89
   1/19/2018 10:00    22     1   245     4 12.75    88
   1/19/2018 09:00    22     1   164     5 12.76    88
   1/19/2018 08:00    22     1   278     3 12.77    89
   1/19/2018 07:00    22     2   172     4 12.78    90
   1/19/2018 06:00    22     3   144     7 12.79    86
   1/19/2018 05:00    22     2    76     6 12.80    87
   1/19/2018 04:00    23     2    38     4 12.81    88
   1/19/2018 03:00    23     2    88     5 12.82    87
   1/19/2018 02:00    23     5   122     8 12.83    87
   1/19/2018 01:00    24     2    51     4 12.84    90
   1/18/2018 24:00    23     1   216     3 12.85    96
   1/18/2018 23:00    22     2   171     4 12.86   100
   1/18/2018 22:00    22     2   125     3 12.88   100
   1/18/2018 21:00    22     3   138     4 12.89   100
   1/18/2018 20:00    22     3   116     5 12.91   100
   1/18/2018 19:00    22     3   140     5 12.93   100
   1/18/2018 18:00    23     3   184     4 12.96   100
   1/18/2018 17:00    24     1   230     3 13.02    98


Click Here for Graph